Time;durP1;ratioP1;P1;durP2;ratioP2;P2;SDS_P1;SDS_P2;PMS_P1;PMS_P2;Temp;Humidity;BMP_temperature;BMP_pressure;BME280_temperature;BME280_humidity;BME280_pressure;Samples;Min_cycle;Max_cycle;Signal;HPM_P1;HPM_P2
2024/03/22 16:20:35;;;;;;;13.82;8.90;;;14.10;90.20;;;;;;4987313;28;20026;-78
2024/03/22 16:23:06;;;;;;;15.50;8.65;;;14.00;90.20;;;;;;4941474;28;20553;-79
2024/03/22 16:25:38;;;;;;;15.13;8.80;;;14.10;90.20;;;;;;4983199;28;20080;-80
2024/03/22 16:28:04;;;;;;;14.65;9.40;;;14.00;90.20;;;;;;4987883;28;20030;-78
2024/03/22 16:30:31;;;;;;;13.23;8.00;;;14.10;90.20;;;;;;4974373;28;20498;-79
2024/03/22 16:32:57;;;;;;;13.82;8.93;;;14.10;90.20;;;;;;4974628;28;20033;-79
2024/03/22 16:35:23;;;;;;;13.70;9.23;;;14.10;90.20;;;;;;4977027;28;20065;-79
2024/03/22 16:37:50;;;;;;;12.73;7.82;;;14.00;90.20;;;;;;4976603;28;20050;-79
2024/03/22 16:40:16;;;;;;;12.10;8.25;;;14.10;90.20;;;;;;4994373;28;20406;-78
2024/03/22 16:42:46;;;;;;;13.00;8.52;;;14.00;90.20;;;;;;4956036;28;20037;-80
2024/03/22 16:45:12;;;;;;;14.07;8.93;;;14.00;90.20;;;;;;4978640;28;20030;-79
2024/03/22 16:47:38;;;;;;;12.50;8.23;;;14.00;90.20;;;;;;4962468;28;20502;-79
2024/03/22 16:50:04;;;;;;;12.18;8.23;;;14.10;90.20;;;;;;4980080;28;20064;-80
2024/03/22 16:52:31;;;;;;;13.68;8.90;;;14.00;90.20;;;;;;4977252;28;20030;-77
2024/03/22 16:54:59;;;;;;;12.77;8.48;;;14.00;90.20;;;;;;4974680;28;20027;-77
2024/03/22 16:57:25;;;;;;;13.27;8.18;;;14.00;90.20;;;;;;4976402;28;20026;-77
2024/03/22 16:59:51;;;;;;;12.73;8.10;;;14.10;90.30;;;;;;4982735;28;20552;-77
2024/03/22 17:02:16;;;;;;;13.13;8.10;;;14.00;90.20;;;;;;4994434;28;20079;-77
2024/03/22 17:04:42;;;;;;;12.60;8.40;;;14.10;90.20;;;;;;4995245;28;20062;-77
2024/03/22 17:07:07;;;;;;;12.65;7.95;;;14.10;90.30;;;;;;4961495;28;20033;-76
2024/03/22 17:09:33;;;;;;;12.50;7.63;;;14.10;90.20;;;;;;4995232;28;20649;-78
2024/03/22 17:11:59;;;;;;;12.95;8.13;;;14.10;90.30;;;;;;4962451;28;20026;-80
2024/03/22 17:14:25;;;;;;;11.57;7.80;;;13.90;90.20;;;;;;4996039;28;20064;-78
2024/03/22 17:16:51;;;;;;;11.65;7.45;;;14.00;90.20;;;;;;4978949;28;20023;-79
2024/03/22 17:19:18;;;;;;;11.43;7.43;;;14.00;90.20;;;;;;4995209;28;20081;-80
2024/03/22 17:21:43;;;;;;;13.38;7.47;;;14.00;90.20;;;;;;4978428;28;20037;-79
2024/03/22 17:24:09;;;;;;;12.73;7.93;;;14.00;90.20;;;;;;4982787;28;20030;-77
2024/03/22 17:26:35;;;;;;;12.05;7.75;;;14.10;90.30;;;;;;4976356;28;20101;-81
2024/03/22 17:29:01;;;;;;;11.13;7.45;;;14.00;90.20;;;;;;4960030;28;20053;-78
2024/03/22 17:31:26;;;;;;;11.30;7.53;;;14.00;90.20;;;;;;4987450;28;20482;-77
2024/03/22 17:33:52;;;;;;;11.43;7.43;;;14.00;90.20;;;;;;4978954;28;20049;-79
2024/03/22 17:36:19;;;;;;;12.77;7.78;;;14.00;90.20;;;;;;4996417;28;20683;-77
2024/03/22 17:38:44;;;;;;;13.13;7.90;;;14.00;90.20;;;;;;4995403;28;20034;-78
2024/03/22 17:41:10;;;;;;;10.93;7.20;;;14.00;90.20;;;;;;4978655;28;20061;-79
2024/03/22 17:43:36;;;;;;;11.60;7.38;;;14.10;90.30;;;;;;4978606;28;20022;-77
2024/03/22 17:46:05;;;;;;;12.13;7.40;;;14.00;90.20;;;;;;4978739;28;20026;-77
2024/03/22 17:48:31;;;;;;;10.75;7.25;;;14.00;90.20;;;;;;4979616;28;20022;-76
2024/03/22 17:50:57;;;;;;;12.30;7.90;;;14.00;90.30;;;;;;4976808;28;20402;-78
2024/03/22 17:53:22;;;;;;;12.27;7.97;;;14.00;90.30;;;;;;4994504;28;20022;-77
2024/03/22 17:55:48;;;;;;;11.60;7.05;;;14.10;90.30;;;;;;4994488;28;20034;-76
2024/03/22 17:58:13;;;;;;;11.05;6.93;;;14.00;90.30;;;;;;4981233;28;20039;-76
2024/03/22 18:00:40;;;;;;;12.13;7.07;;;14.00;90.30;;;;;;4993261;28;20085;-77
2024/03/22 18:03:05;;;;;;;10.50;6.85;;;14.10;90.30;;;;;;4993820;28;20044;-77
2024/03/22 18:05:31;;;;;;;11.15;6.82;;;14.10;90.30;;;;;;4975817;28;20026;-77
2024/03/22 18:07:58;;;;;;;11.85;7.53;;;14.10;90.30;;;;;;4992927;28;20473;-78
2024/03/22 18:10:25;;;;;;;12.20;6.80;;;14.00;90.20;;;;;;4971618;28;20052;-77
2024/03/22 18:12:51;;;;;;;18.55;7.53;;;14.00;90.30;;;;;;4989870;28;20027;-81
2024/03/22 18:15:16;;;;;;;12.55;6.95;;;14.00;90.30;;;;;;4976004;28;20038;-77
2024/03/22 18:17:42;;;;;;;17.55;7.03;;;14.00;90.30;;;;;;4975999;28;20077;-79
2024/03/22 18:20:09;;;;;;;14.73;7.15;;;14.00;90.30;;;;;;4975370;28;20375;-78
2024/03/22 18:22:35;;;;;;;13.60;6.82;;;14.00;90.30;;;;;;4993399;28;20034;-78
2024/03/22 18:25:00;;;;;;;12.40;6.57;;;14.00;90.30;;;;;;4975968;28;20026;-79
2024/03/22 18:27:26;;;;;;;15.10;6.70;;;14.10;90.30;;;;;;4993227;28;20038;-79
2024/03/22 18:29:51;;;;;;;12.32;6.55;;;14.00;90.30;;;;;;4975657;28;20041;-78
2024/03/22 18:32:17;;;;;;;14.75;6.38;;;14.00;90.30;;;;;;4993267;28;20026;-78
2024/03/22 18:34:43;;;;;;;13.23;6.70;;;14.00;90.30;;;;;;4993178;28;20033;-78
2024/03/22 18:37:09;;;;;;;15.80;6.85;;;14.00;90.30;;;;;;4993162;28;20670;-79
2024/03/22 18:39:35;;;;;;;11.63;6.55;;;14.00;90.30;;;;;;4993364;28;20066;-79
2024/03/22 18:42:00;;;;;;;13.48;6.85;;;14.00;90.30;;;;;;4975530;28;20027;-79
2024/03/22 18:44:28;;;;;;;12.13;6.22;;;14.00;90.30;;;;;;4982618;28;20105;-79
2024/03/22 18:46:54;;;;;;;11.93;6.05;;;14.00;90.30;;;;;;4956697;28;20109;-79
2024/03/22 18:49:20;;;;;;;12.82;6.07;;;14.00;90.30;;;;;;4973828;28;20029;-78
2024/03/22 18:51:46;;;;;;;13.20;6.05;;;14.00;90.30;;;;;;4952776;28;20030;-78
2024/03/22 18:54:13;;;;;;;12.50;5.93;;;14.00;90.30;;;;;;4997239;28;20028;-78
2024/03/22 18:56:39;;;;;;;10.93;6.15;;;14.00;90.30;;;;;;4979577;28;20068;-78
2024/03/22 18:59:06;;;;;;;14.90;6.63;;;14.00;90.30;;;;;;4979476;28;20125;-78
2024/03/22 19:01:31;;;;;;;10.25;6.20;;;13.90;90.30;;;;;;4979280;28;20023;-78
2024/03/22 19:03:57;;;;;;;11.05;6.10;;;14.00;90.30;;;;;;4996605;28;20030;-78
2024/03/22 19:06:23;;;;;;;11.32;6.60;;;14.00;90.30;;;;;;4979463;28;20023;-79
2024/03/22 19:08:48;;;;;;;13.23;6.03;;;14.00;90.30;;;;;;4978812;28;20045;-78
2024/03/22 19:11:14;;;;;;;10.60;5.78;;;14.00;90.30;;;;;;4962758;28;20033;-78
2024/03/22 19:13:39;;;;;;;10.95;6.78;;;14.00;90.30;;;;;;4996915;28;20023;-78
2024/03/22 19:16:05;;;;;;;10.05;5.85;;;14.00;90.30;;;;;;4960001;28;20034;-79
2024/03/22 19:18:32;;;;;;;11.38;5.57;;;14.00;90.30;;;;;;4976045;28;20027;-79
2024/03/22 19:20:57;;;;;;;12.98;5.80;;;14.00;90.30;;;;;;4976842;28;20066;-78
2024/03/22 19:23:23;;;;;;;11.07;6.10;;;13.90;90.20;;;;;;4975839;28;20027;-79
2024/03/22 19:25:50;;;;;;;10.30;5.90;;;14.00;90.30;;;;;;4976045;28;20027;-78
2024/03/22 19:28:16;;;;;;;12.93;6.05;;;14.00;90.30;;;;;;4977239;28;20031;-77
2024/03/22 19:30:42;;;;;;;10.48;5.93;;;14.00;90.20;;;;;;4975744;28;20058;-79
2024/03/22 19:33:08;;;;;;;12.70;5.82;;;14.00;90.20;;;;;;4975780;28;20131;-78
2024/03/22 19:35:34;;;;;;;11.23;5.78;;;13.90;90.20;;;;;;4978453;28;20129;-78
2024/03/22 19:38:00;;;;;;;9.32;5.45;;;14.00;90.30;;;;;;4979072;28;20457;-77
2024/03/22 19:40:25;;;;;;;9.30;5.43;;;14.00;90.30;;;;;;4995980;28;20023;-77
2024/03/22 19:42:51;;;;;;;9.48;5.72;;;13.90;90.20;;;;;;4996663;28;20080;-77
2024/03/22 19:45:17;;;;;;;9.85;5.95;;;14.00;90.30;;;;;;4978621;28;20031;-77
2024/03/22 19:47:43;;;;;;;11.05;6.10;;;14.00;90.20;;;;;;4995942;28;20030;-77
2024/03/22 19:50:09;;;;;;;11.15;5.88;;;14.00;90.20;;;;;;4977897;28;20585;-77
2024/03/22 19:52:35;;;;;;;9.57;5.72;;;14.00;90.20;;;;;;4978800;28;20030;-77
2024/03/22 19:55:00;;;;;;;9.73;5.65;;;14.00;90.20;;;;;;4978605;28;20105;-77
2024/03/22 19:57:26;;;;;;;9.43;5.90;;;14.00;90.20;;;;;;4996429;28;20105;-77
2024/03/22 19:59:52;;;;;;;10.98;6.10;;;14.00;90.20;;;;;;4996002;28;20401;-78
2024/03/22 20:02:17;;;;;;;10.05;5.78;;;14.00;90.20;;;;;;4995879;28;20081;-78
2024/03/22 20:04:43;;;;;;;10.10;5.72;;;14.00;90.20;;;;;;4996140;28;20594;-78
2024/03/22 20:07:09;;;;;;;10.88;6.40;;;14.00;90.20;;;;;;4996493;28;20109;-78
2024/03/22 20:09:34;;;;;;;10.15;5.75;;;14.00;90.20;;;;;;4995652;28;20026;-77
2024/03/22 20:12:00;;;;;;;10.00;5.72;;;14.00;90.20;;;;;;4978692;28;20077;-77
2024/03/22 20:14:25;;;;;;;10.82;6.05;;;14.00;90.20;;;;;;4978604;28;20026;-78
2024/03/22 20:16:52;;;;;;;9.43;5.60;;;14.00;90.20;;;;;;4978322;28;20113;-77
2024/03/22 20:19:19;;;;;;;9.10;5.63;;;14.00;90.20;;;;;;4978243;28;20034;-77
2024/03/22 20:21:45;;;;;;;9.00;5.90;;;14.00;90.20;;;;;;4962250;28;20042;-77
2024/03/22 20:24:11;;;;;;;8.68;5.28;;;14.00;90.20;;;;;;4978155;28;20069;-77
2024/03/22 20:26:37;;;;;;;7.80;5.60;;;14.00;90.20;;;;;;4995781;28;20026;-77
2024/03/22 20:29:02;;;;;;;10.10;5.60;;;14.00;90.20;;;;;;4962320;28;20038;-77
2024/03/22 20:31:28;;;;;;;9.10;5.00;;;14.00;90.20;;;;;;4978065;28;20678;-77
2024/03/22 20:33:54;;;;;;;8.13;5.43;;;14.00;90.20;;;;;;4978040;28;20398;-77
2024/03/22 20:36:19;;;;;;;8.75;5.30;;;14.00;90.20;;;;;;4977975;28;20030;-78
2024/03/22 20:38:46;;;;;;;9.32;5.32;;;14.00;90.20;;;;;;4978190;28;20027;-77
2024/03/22 20:41:12;;;;;;;8.48;5.18;;;14.00;90.20;;;;;;4995210;28;20026;-77
2024/03/22 20:43:39;;;;;;;9.60;5.53;;;14.00;90.20;;;;;;4977869;28;20033;-77
2024/03/22 20:46:06;;;;;;;8.68;5.50;;;14.00;90.20;;;;;;4995456;28;20796;-76
2024/03/22 20:48:32;;;;;;;8.95;5.22;;;14.00;90.30;;;;;;4995495;28;20033;-76
2024/03/22 20:50:59;;;;;;;8.57;5.10;;;14.00;90.20;;;;;;4977012;28;20117;-77
2024/03/22 20:53:25;;;;;;;10.32;5.47;;;13.90;90.20;;;;;;4977771;28;20406;-77
2024/03/22 20:55:52;;;;;;;9.00;5.13;;;14.00;90.20;;;;;;4994984;28;20029;-77
2024/03/22 20:58:18;;;;;;;8.30;5.25;;;14.00;90.20;;;;;;4995191;28;20037;-77
2024/03/22 21:00:46;;;;;;;8.70;5.30;;;14.00;90.20;;;;;;4977491;28;20030;-77
2024/03/22 21:03:18;;;;;;;9.30;4.75;;;14.00;90.20;;;;;;4977581;28;20060;-77
2024/03/22 21:05:45;;;;;;;9.52;5.10;;;14.00;90.20;;;;;;4977266;28;20487;-78
2024/03/22 21:08:11;;;;;;;9.30;5.40;;;14.00;90.20;;;;;;4994893;28;20376;-77
2024/03/22 21:10:39;;;;;;;8.90;5.20;;;14.00;90.20;;;;;;4977030;28;20034;-76
2024/03/22 21:13:06;;;;;;;9.25;4.93;;;14.00;90.20;;;;;;4977314;28;20038;-77
2024/03/22 21:15:33;;;;;;;8.63;5.00;;;14.00;90.20;;;;;;4994213;28;20034;-77
2024/03/22 21:17:59;;;;;;;8.48;5.18;;;13.90;90.20;;;;;;4977143;28;20497;-78
2024/03/22 21:20:26;;;;;;;8.60;4.97;;;14.00;90.20;;;;;;4994378;28;20030;-77
2024/03/22 21:22:52;;;;;;;9.02;5.40;;;14.00;90.20;;;;;;4976820;28;20030;-77
2024/03/22 21:25:19;;;;;;;8.77;4.78;;;14.00;90.20;;;;;;4976575;28;20033;-81
2024/03/22 21:27:45;;;;;;;8.48;5.15;;;14.00;90.20;;;;;;4976314;28;20602;-80
2024/03/22 21:30:12;;;;;;;8.88;4.93;;;14.00;90.20;;;;;;4976194;28;20033;-80
2024/03/22 21:32:38;;;;;;;8.73;5.28;;;14.00;90.20;;;;;;4995968;28;20410;-78
2024/03/22 21:35:05;;;;;;;9.27;4.72;;;14.00;90.20;;;;;;4976905;28;20034;-78
2024/03/22 21:37:32;;;;;;;9.82;5.13;;;13.90;90.20;;;;;;4976504;28;20022;-80
2024/03/22 21:43:20;;;;;;;8.05;4.95;;;14.00;90.20;;;;;;4987071;28;20201;-78
2024/03/22 21:45:47;;;;;;;9.07;4.95;;;13.90;90.20;;;;;;4982093;28;20447;-78
2024/03/22 21:48:13;;;;;;;8.75;5.22;;;14.00;90.20;;;;;;4984230;28;20117;-79
2024/03/22 21:50:40;;;;;;;7.82;4.30;;;14.00;90.20;;;;;;4978190;28;20035;-78
2024/03/22 21:53:06;;;;;;;9.35;5.20;;;14.00;90.20;;;;;;4974457;28;20573;-78
2024/03/22 21:55:33;;;;;;;7.85;5.00;;;13.90;90.20;;;;;;4974177;28;20463;-77
2024/03/22 21:58:00;;;;;;;8.07;4.78;;;14.00;90.20;;;;;;4956764;28;20031;-78
2024/03/22 22:00:26;;;;;;;8.13;4.85;;;13.90;90.20;;;;;;4972132;28;20101;-77
2024/03/22 22:02:53;;;;;;;8.45;4.93;;;14.00;90.20;;;;;;4957040;28;20117;-77
2024/03/22 22:05:19;;;;;;;9.18;4.95;;;13.90;90.20;;;;;;4972927;28;20525;-77
2024/03/22 22:07:46;;;;;;;9.15;5.50;;;13.90;90.20;;;;;;4956669;28;20039;-79
2024/03/22 22:10:12;;;;;;;8.05;4.35;;;14.00;90.20;;;;;;4973785;28;20502;-79
2024/03/22 22:12:39;;;;;;;8.10;4.82;;;14.00;90.20;;;;;;4974117;28;20082;-79
2024/03/22 22:15:05;;;;;;;8.73;4.70;;;14.00;90.20;;;;;;4974339;28;20034;-79
2024/03/22 22:17:32;;;;;;;7.75;4.43;;;13.90;90.20;;;;;;4956675;28;20077;-79
2024/03/22 22:19:59;;;;;;;10.00;4.93;;;14.00;90.20;;;;;;4973781;28;20023;-81
2024/03/22 22:22:26;;;;;;;8.43;5.07;;;14.00;90.20;;;;;;4974218;28;20037;-79
2024/03/22 22:24:53;;;;;;;7.30;4.50;;;13.90;90.20;;;;;;4974032;28;20027;-79
2024/03/22 22:27:19;;;;;;;8.45;4.78;;;13.90;90.20;;;;;;4974220;28;20031;-79
2024/03/22 22:29:46;;;;;;;8.18;4.47;;;13.90;90.20;;;;;;4972224;28;20038;-77
2024/03/22 22:32:12;;;;;;;7.82;4.70;;;13.90;90.20;;;;;;4956966;28;20027;-78
2024/03/22 22:34:39;;;;;;;9.35;4.97;;;14.00;90.20;;;;;;4972968;28;20380;-78
2024/03/22 22:37:06;;;;;;;8.23;4.65;;;14.00;90.20;;;;;;4973950;28;20023;-78
2024/03/22 22:39:32;;;;;;;8.30;4.45;;;13.90;90.20;;;;;;4973971;28;20022;-78
2024/03/22 22:41:59;;;;;;;8.32;4.45;;;14.00;90.20;;;;;;4972502;28;20034;-79
2024/03/22 22:44:25;;;;;;;7.60;4.40;;;13.90;90.20;;;;;;4956679;28;20030;-78
2024/03/22 22:46:52;;;;;;;8.63;4.55;;;13.90;90.10;;;;;;4974030;28;20026;-77
2024/03/22 22:49:18;;;;;;;8.30;4.68;;;13.90;90.10;;;;;;4956670;28;20095;-79
2024/03/22 22:51:45;;;;;;;8.48;4.75;;;13.90;90.10;;;;;;4972597;28;20691;-78
2024/03/22 22:54:11;;;;;;;8.68;4.55;;;13.90;90.30;;;;;;4974280;28;20031;-78
2024/03/22 22:56:38;;;;;;;7.43;4.60;;;13.90;90.10;;;;;;4974260;28;20498;-79
2024/03/22 22:59:04;;;;;;;8.40;4.65;;;13.90;90.10;;;;;;4956719;28;20023;-78
2024/03/22 23:01:33;;;;;;;7.53;4.40;;;13.90;90.10;;;;;;4971846;28;20487;-79
2024/03/22 23:04:02;;;;;;;8.52;4.60;;;13.90;90.10;;;;;;4973850;28;20031;-78
2024/03/22 23:06:29;;;;;;;8.48;4.32;;;14.00;90.10;;;;;;4972453;28;20030;-78
2024/03/22 23:08:55;;;;;;;8.23;4.63;;;13.90;90.10;;;;;;4973473;28;20035;-79
2024/03/22 23:11:22;;;;;;;8.43;4.45;;;13.90;90.40;;;;;;4956041;28;20069;-78
2024/03/22 23:13:48;;;;;;;8.82;4.93;;;13.90;90.10;;;;;;4971989;28;20023;-78
2024/03/22 23:16:15;;;;;;;8.10;4.60;;;13.90;90.10;;;;;;4972212;28;20041;-78
2024/03/22 23:18:41;;;;;;;9.10;4.80;;;13.90;90.10;;;;;;4973438;28;20023;-78
2024/03/22 23:21:09;;;;;;;7.28;4.45;;;13.90;90.10;;;;;;4985259;28;20093;-79
2024/03/22 23:23:38;;;;;;;8.27;4.65;;;13.90;90.10;;;;;;4975347;28;20057;-78
2024/03/22 23:26:05;;;;;;;7.25;4.32;;;13.90;90.10;;;;;;4992822;28;20022;-78
2024/03/22 23:28:35;;;;;;;9.02;4.60;;;13.90;90.10;;;;;;4975126;28;20537;-78
2024/03/22 23:31:02;;;;;;;8.65;4.35;;;13.90;90.10;;;;;;4992541;28;20046;-78
2024/03/22 23:33:29;;;;;;;8.93;4.70;;;13.90;90.10;;;;;;4975414;28;20086;-79
2024/03/22 23:35:56;;;;;;;7.82;4.30;;;13.90;90.10;;;;;;4975094;28;20042;-78
2024/03/22 23:38:22;;;;;;;7.18;4.28;;;13.90;90.10;;;;;;4978060;28;20022;-78
2024/03/22 23:40:49;;;;;;;8.85;4.47;;;13.90;90.10;;;;;;4994615;28;20077;-78
2024/03/22 23:43:16;;;;;;;7.85;4.43;;;13.90;90.10;;;;;;4995909;28;20220;-78
2024/03/22 23:45:43;;;;;;;8.27;4.30;;;13.90;90.10;;;;;;4996029;28;20493;-78
2024/03/22 23:48:10;;;;;;;7.85;4.25;;;13.90;90.10;;;;;;4995716;28;20030;-79
2024/03/22 23:50:36;;;;;;;6.97;3.97;;;13.90;90.10;;;;;;4978673;28;20041;-78
2024/03/22 23:53:03;;;;;;;7.07;4.00;;;13.90;90.10;;;;;;4997018;28;20029;-79
2024/03/22 23:55:32;;;;;;;7.80;4.30;;;13.90;90.00;;;;;;4995599;28;20030;-78
2024/03/22 23:57:59;;;;;;;7.38;4.13;;;13.90;90.10;;;;;;4991671;28;20031;-78
